Time;durP1;ratioP1;P1;durP2;ratioP2;P2;SDS_P1;SDS_P2;PMS_P1;PMS_P2;Temp;Humidity;BMP_temperature;BMP_pressure;BME280_temperature;BME280_humidity;BME280_pressure;Samples;Min_cycle;Max_cycle;Signal;HPM_P1;HPM_P2
2024/03/20 00:02:05;;;;;;;10.20;3.70;;;;;;;;;;5030877;28;20053;-77
2024/03/20 00:04:31;;;;;;;11.65;4.57;;;;;;;;;;5031933;28;20030;-78
2024/03/20 00:06:57;;;;;;;12.38;4.53;;;;;;;;;;5030852;28;20030;-78
2024/03/20 00:09:24;;;;;;;10.43;4.10;;;;;;;;;;5030569;28;20025;-77
2024/03/20 00:11:50;;;;;;;9.50;4.22;;;;;;;;;;5030776;28;20018;-77
2024/03/20 00:14:16;;;;;;;11.02;4.47;;;;;;;;;;5030560;28;20033;-78
2024/03/20 00:16:42;;;;;;;13.32;3.92;;;;;;;;;;5031615;28;20371;-77
2024/03/20 00:19:09;;;;;;;11.95;4.20;;;;;;;;;;5031773;28;20026;-77
2024/03/20 00:21:35;;;;;;;9.82;3.83;;;;;;;;;;5030444;28;20017;-77
2024/03/20 00:24:01;;;;;;;11.38;4.60;;;;;;;;;;5032293;28;20026;-77
2024/03/20 00:26:27;;;;;;;9.98;4.50;;;;;;;;;;5031783;28;20100;-77
2024/03/20 00:28:53;;;;;;;9.70;3.83;;;;;;;;;;5032057;28;20464;-77
2024/03/20 00:31:19;;;;;;;9.48;4.70;;;;;;;;;;5031881;28;20108;-78
2024/03/20 00:33:45;;;;;;;12.15;4.07;;;;;;;;;;5030512;28;20033;-78
2024/03/20 00:36:11;;;;;;;14.73;4.75;;;;;;;;;;5030662;28;20036;-77
2024/03/20 00:38:38;;;;;;;11.20;5.07;;;;;;;;;;5030391;28;20029;-77
2024/03/20 00:41:04;;;;;;;11.52;5.10;;;;;;;;;;5030571;28;20432;-78
2024/03/20 00:43:30;;;;;;;12.70;5.18;;;;;;;;;;5030247;28;20179;-76
2024/03/20 00:45:56;;;;;;;12.65;5.60;;;;;;;;;;5030538;28;20021;-79
2024/03/20 00:48:22;;;;;;;13.13;5.78;;;;;;;;;;5030287;28;20037;-77
2024/03/20 00:50:48;;;;;;;8.55;4.70;;;;;;;;;;5030470;28;20022;-78
2024/03/20 00:53:14;;;;;;;16.33;5.63;;;;;;;;;;5030349;28;20381;-78
2024/03/20 00:55:43;;;;;;;14.90;6.30;;;;;;;;;;5032952;28;20037;-78
2024/03/20 00:58:11;;;;;;;10.77;6.15;;;;;;;;;;5034300;28;20564;-78
2024/03/20 01:00:38;;;;;;;17.73;6.72;;;;;;;;;;5034060;28;20027;-79
2024/03/20 01:03:04;;;;;;;14.75;6.60;;;;;;;;;;5034391;28;20484;-78
2024/03/20 01:05:30;;;;;;;17.75;6.60;;;;;;;;;;5033764;28;20034;-79
2024/03/20 01:07:56;;;;;;;13.82;6.28;;;;;;;;;;5033905;28;20032;-77
2024/03/20 01:10:22;;;;;;;17.13;6.70;;;;;;;;;;5033511;28;20025;-77
2024/03/20 01:12:49;;;;;;;14.93;7.65;;;;;;;;;;5035050;28;20052;-78
2024/03/20 01:15:15;;;;;;;15.27;7.55;;;;;;;;;;5033629;28;20405;-78
2024/03/20 01:17:41;;;;;;;17.70;8.43;;;;;;;;;;5035077;28;20439;-78
2024/03/20 01:20:07;;;;;;;18.13;7.50;;;;;;;;;;5033838;28;20029;-77
2024/03/20 01:22:37;;;;;;;18.50;8.02;;;;;;;;;;5034810;28;20106;-77
2024/03/20 01:25:03;;;;;;;18.17;8.30;;;;;;;;;;5033798;28;20465;-78
2024/03/20 01:27:29;;;;;;;16.00;7.63;;;;;;;;;;5034969;28;20100;-78
2024/03/20 01:29:55;;;;;;;20.55;9.23;;;;;;;;;;5034010;28;20026;-77
2024/03/20 01:32:21;;;;;;;14.27;8.27;;;;;;;;;;5034326;28;20101;-78
2024/03/20 01:34:47;;;;;;;15.15;8.27;;;;;;;;;;5034298;28;20026;-77
2024/03/20 01:37:14;;;;;;;17.65;8.85;;;;;;;;;;5035419;28;20052;-78
2024/03/20 01:39:40;;;;;;;16.05;8.75;;;;;;;;;;5034400;28;20025;-77
2024/03/20 01:42:06;;;;;;;18.83;10.00;;;;;;;;;;5033977;28;20022;-78
2024/03/20 01:44:32;;;;;;;22.13;9.20;;;;;;;;;;5034068;28;20465;-78
2024/03/20 01:46:58;;;;;;;21.00;9.40;;;;;;;;;;5034212;28;20021;-77
2024/03/20 01:49:24;;;;;;;18.27;8.80;;;;;;;;;;5034733;28;20021;-78
2024/03/20 01:51:51;;;;;;;20.70;8.95;;;;;;;;;;5033249;28;20029;-77
2024/03/20 01:54:17;;;;;;;15.57;8.52;;;;;;;;;;5033238;28;20084;-78
2024/03/20 01:56:44;;;;;;;17.95;8.73;;;;;;;;;;5034374;28;20132;-78
2024/03/20 01:59:10;;;;;;;18.77;9.80;;;;;;;;;;5033238;28;20026;-78
2024/03/20 02:01:36;;;;;;;22.45;10.13;;;;;;;;;;5034331;28;20029;-78
2024/03/20 02:04:03;;;;;;;18.27;9.70;;;;;;;;;;5033114;28;20064;-77
2024/03/20 02:06:29;;;;;;;21.45;10.07;;;;;;;;;;5034059;28;20029;-77
2024/03/20 02:08:56;;;;;;;17.75;9.57;;;;;;;;;;5034072;28;20029;-77
2024/03/20 02:11:26;;;;;;;21.27;9.68;;;;;;;;;;5032976;28;20021;-76
2024/03/20 02:13:53;;;;;;;16.50;9.35;;;;;;;;;;5032556;28;20034;-77
2024/03/20 02:16:20;;;;;;;18.20;8.82;;;;;;;;;;5032675;28;20049;-77
2024/03/20 02:18:47;;;;;;;15.82;9.60;;;;;;;;;;5032721;28;20033;-77
2024/03/20 02:21:17;;;;;;;18.08;9.93;;;;;;;;;;5033849;28;20024;-77
2024/03/20 02:23:43;;;;;;;16.02;8.63;;;;;;;;;;5032486;28;20028;-77
2024/03/20 02:26:09;;;;;;;17.75;10.52;;;;;;;;;;5032728;28;20018;-77
2024/03/20 02:28:38;;;;;;;21.65;9.73;;;;;;;;;;5032354;28;20021;-77
2024/03/20 02:31:04;;;;;;;22.13;10.02;;;;;;;;;;5032550;28;20377;-77
2024/03/20 02:33:31;;;;;;;17.67;10.13;;;;;;;;;;5032207;28;20040;-76
2024/03/20 02:35:57;;;;;;;17.95;10.50;;;;;;;;;;5033830;28;20025;-77
2024/03/20 02:38:24;;;;;;;17.42;9.60;;;;;;;;;;5032499;28;20033;-78
2024/03/20 02:40:50;;;;;;;19.08;10.52;;;;;;;;;;5033220;28;20480;-78
2024/03/20 02:43:19;;;;;;;19.00;9.88;;;;;;;;;;5033633;28;20033;-78
2024/03/20 02:45:45;;;;;;;17.98;9.15;;;;;;;;;;5032107;28;20026;-78
2024/03/20 02:48:13;;;;;;;16.25;10.55;;;;;;;;;;5032305;28;20420;-77
2024/03/20 02:50:39;;;;;;;19.83;9.85;;;;;;;;;;5032221;28;20029;-78
2024/03/20 02:53:05;;;;;;;20.50;10.77;;;;;;;;;;5032177;28;20036;-78
2024/03/20 02:55:35;;;;;;;18.13;9.70;;;;;;;;;;5032104;28;20033;-79
2024/03/20 02:58:01;;;;;;;18.30;11.07;;;;;;;;;;5032118;28;20025;-77
2024/03/20 03:00:30;;;;;;;18.50;10.18;;;;;;;;;;5031575;28;20048;-77
2024/03/20 03:02:56;;;;;;;19.25;10.55;;;;;;;;;;5033462;28;20025;-78
2024/03/20 03:05:22;;;;;;;16.77;9.98;;;;;;;;;;5033314;28;20071;-78
2024/03/20 03:07:49;;;;;;;20.25;10.35;;;;;;;;;;5033061;28;20101;-78
2024/03/20 03:10:15;;;;;;;16.92;10.07;;;;;;;;;;5032828;28;20422;-78
2024/03/20 03:12:45;;;;;;;22.23;11.10;;;;;;;;;;5033034;28;20112;-78
2024/03/20 03:15:11;;;;;;;18.23;9.85;;;;;;;;;;5031640;28;20050;-78
2024/03/20 03:17:37;;;;;;;20.85;9.43;;;;;;;;;;5032391;28;20068;-78
2024/03/20 03:20:14;;;;;;;19.80;11.18;;;;;;;;;;5033182;28;20022;-78
2024/03/20 03:22:40;;;;;;;18.70;9.43;;;;;;;;;;5031723;28;20087;-78
2024/03/20 03:25:07;;;;;;;16.27;9.38;;;;;;;;;;5031638;28;20666;-78
2024/03/20 03:27:33;;;;;;;17.55;10.07;;;;;;;;;;5032729;28;20087;-78
2024/03/20 03:29:59;;;;;;;16.50;9.57;;;;;;;;;;5031517;28;20049;-78
2024/03/20 03:32:25;;;;;;;18.15;10.05;;;;;;;;;;5031457;28;20021;-79
2024/03/20 03:34:51;;;;;;;13.48;8.80;;;;;;;;;;5031340;28;20030;-78
2024/03/20 03:37:18;;;;;;;15.50;9.07;;;;;;;;;;5033109;28;20037;-79
2024/03/20 03:39:44;;;;;;;15.07;8.60;;;;;;;;;;5033052;28;20533;-78
2024/03/20 03:42:14;;;;;;;15.55;8.75;;;;;;;;;;5032604;28;20049;-78
2024/03/20 03:44:41;;;;;;;21.50;8.13;;;;;;;;;;5032257;28;20028;-78
2024/03/20 03:47:07;;;;;;;15.70;9.18;;;;;;;;;;5031359;28;20026;-78
2024/03/20 03:49:33;;;;;;;18.60;8.35;;;;;;;;;;5030917;28;20354;-78
2024/03/20 03:51:59;;;;;;;14.43;7.53;;;;;;;;;;5032425;28;20101;-78
2024/03/20 03:54:25;;;;;;;19.88;8.13;;;;;;;;;;5031078;28;20124;-78
2024/03/20 03:56:51;;;;;;;17.40;8.43;;;;;;;;;;5032493;28;20424;-78
2024/03/20 03:59:17;;;;;;;13.57;7.70;;;;;;;;;;5031197;28;20030;-78
2024/03/20 04:01:43;;;;;;;14.02;7.22;;;;;;;;;;5030783;28;20033;-77
2024/03/20 04:04:10;;;;;;;15.07;7.22;;;;;;;;;;5030972;28;20508;-77
2024/03/20 04:06:36;;;;;;;14.80;7.15;;;;;;;;;;5030745;28;20416;-78
2024/03/20 04:09:02;;;;;;;13.20;6.75;;;;;;;;;;5030301;28;20218;-78
2024/03/20 04:11:29;;;;;;;17.25;7.47;;;;;;;;;;5030949;28;20029;-76
2024/03/20 04:13:55;;;;;;;15.57;7.47;;;;;;;;;;5030778;28;20041;-78
2024/03/20 04:16:21;;;;;;;16.88;6.28;;;;;;;;;;5038676;28;20057;-77
2024/03/20 04:18:47;;;;;;;14.90;7.00;;;;;;;;;;5030597;28;20029;-77
2024/03/20 04:21:13;;;;;;;14.57;7.45;;;;;;;;;;5030928;28;20048;-77
2024/03/20 04:23:39;;;;;;;12.00;5.55;;;;;;;;;;5032571;28;20033;-77
2024/03/20 04:26:05;;;;;;;20.40;7.03;;;;;;;;;;5050689;28;20025;-77
2024/03/20 04:28:32;;;;;;;17.17;5.88;;;;;;;;;;5050584;28;20079;-78
2024/03/20 04:30:58;;;;;;;16.67;6.15;;;;;;;;;;5054518;28;20461;-76
2024/03/20 04:33:24;;;;;;;11.82;6.05;;;;;;;;;;5055743;28;20035;-77
2024/03/20 04:35:50;;;;;;;12.88;6.00;;;;;;;;;;5054584;28;20121;-78
2024/03/20 04:38:16;;;;;;;11.13;6.35;;;;;;;;;;5054796;28;20036;-78
2024/03/20 04:40:42;;;;;;;12.65;5.60;;;;;;;;;;5055743;28;20025;-78
2024/03/20 04:43:09;;;;;;;15.00;5.88;;;;;;;;;;5055884;28;20516;-77
2024/03/20 04:45:35;;;;;;;15.98;6.63;;;;;;;;;;5055744;28;20518;-77
2024/03/20 04:48:01;;;;;;;15.13;6.82;;;;;;;;;;5055847;28;20033;-77
2024/03/20 04:50:27;;;;;;;16.08;6.03;;;;;;;;;;5055667;28;20018;-77
2024/03/20 04:52:53;;;;;;;13.00;5.95;;;;;;;;;;5054276;28;20025;-79
2024/03/20 04:55:19;;;;;;;14.63;5.13;;;;;;;;;;5054413;28;20025;-77
2024/03/20 04:57:45;;;;;;;15.65;6.00;;;;;;;;;;5055851;28;20074;-77
2024/03/20 05:00:16;;;;;;;17.00;5.63;;;;;;;;;;5054406;28;20032;-78
2024/03/20 05:02:42;;;;;;;12.32;5.75;;;;;;;;;;5054104;28;20024;-77
2024/03/20 05:05:09;;;;;;;15.82;5.57;;;;;;;;;;5055551;28;20025;-76
2024/03/20 05:07:36;;;;;;;10.13;4.45;;;;;;;;;;5055257;28;20104;-78
2024/03/20 05:10:02;;;;;;;11.75;5.00;;;;;;;;;;5054148;28;20574;-78
2024/03/20 05:12:28;;;;;;;16.65;6.40;;;;;;;;;;5054251;28;20021;-77
2024/03/20 05:14:54;;;;;;;12.70;5.25;;;;;;;;;;5053563;28;20508;-77
2024/03/20 05:17:20;;;;;;;16.77;5.50;;;;;;;;;;5053992;28;20032;-78
2024/03/20 05:19:46;;;;;;;9.75;5.43;;;;;;;;;;5053802;28;20048;-78
2024/03/20 05:22:12;;;;;;;15.10;5.28;;;;;;;;;;5053847;28;20442;-78
2024/03/20 05:24:38;;;;;;;13.57;5.80;;;;;;;;;;5055016;28;20032;-77
2024/03/20 05:27:06;;;;;;;14.77;5.43;;;;;;;;;;5055540;28;20112;-77
2024/03/20 05:29:32;;;;;;;18.27;7.20;;;;;;;;;;5054132;28;20049;-77
2024/03/20 05:31:58;;;;;;;17.23;6.13;;;;;;;;;;5054021;28;20537;-77
2024/03/20 05:34:24;;;;;;;15.45;6.28;;;;;;;;;;5056394;28;20492;-77
2024/03/20 05:36:50;;;;;;;13.55;5.85;;;;;;;;;;5055346;28;20029;-78
2024/03/20 05:39:16;;;;;;;13.85;5.82;;;;;;;;;;5054875;28;20037;-78
2024/03/20 05:41:42;;;;;;;16.63;5.90;;;;;;;;;;5052569;28;20500;-78
2024/03/20 05:44:08;;;;;;;12.80;6.75;;;;;;;;;;5053404;28;20033;-78
2024/03/20 05:46:34;;;;;;;13.30;6.30;;;;;;;;;;5054792;28;20072;-78
2024/03/20 05:49:00;;;;;;;14.57;6.85;;;;;;;;;;5054989;28;20028;-78
2024/03/20 05:51:26;;;;;;;14.70;7.32;;;;;;;;;;5054581;28;20025;-77
2024/03/20 05:53:52;;;;;;;16.42;7.15;;;;;;;;;;5053060;28;20112;-77
2024/03/20 05:56:19;;;;;;;18.38;7.38;;;;;;;;;;5054618;28;20053;-77
2024/03/20 05:58:45;;;;;;;15.60;7.03;;;;;;;;;;5054287;28;20109;-77
2024/03/20 06:01:11;;;;;;;16.60;7.28;;;;;;;;;;5053173;28;20021;-78
2024/03/20 06:03:37;;;;;;;17.13;7.30;;;;;;;;;;5052930;28;20028;-77
2024/03/20 06:06:03;;;;;;;20.30;7.65;;;;;;;;;;5054539;28;20017;-77
2024/03/20 06:08:29;;;;;;;16.10;7.07;;;;;;;;;;5051964;28;20025;-77
2024/03/20 06:10:58;;;;;;;16.75;6.75;;;;;;;;;;5052777;28;20055;-77
2024/03/20 06:13:24;;;;;;;16.75;7.07;;;;;;;;;;5053868;28;20376;-77
2024/03/20 06:15:50;;;;;;;15.93;7.10;;;;;;;;;;5052517;28;20049;-78
2024/03/20 06:18:16;;;;;;;17.08;7.32;;;;;;;;;;5054208;28;20029;-78
2024/03/20 06:20:42;;;;;;;18.80;8.00;;;;;;;;;;5052608;28;20229;-78
2024/03/20 06:23:08;;;;;;;11.68;6.65;;;;;;;;;;5054159;28;20073;-78
2024/03/20 06:25:34;;;;;;;17.23;7.55;;;;;;;;;;5053798;28;20587;-77
2024/03/20 06:28:00;;;;;;;14.35;7.00;;;;;;;;;;5052212;28;20033;-77
2024/03/20 06:30:26;;;;;;;13.20;6.95;;;;;;;;;;5053899;28;20548;-77
2024/03/20 06:32:53;;;;;;;15.32;7.35;;;;;;;;;;5052083;28;20032;-77
2024/03/20 06:35:19;;;;;;;17.48;6.38;;;;;;;;;;5052409;28;20021;-78
2024/03/20 06:37:45;;;;;;;16.65;7.13;;;;;;;;;;5052195;28;20587;-78
2024/03/20 06:40:12;;;;;;;13.40;6.38;;;;;;;;;;5052544;28;20051;-76
2024/03/20 06:42:38;;;;;;;17.73;7.10;;;;;;;;;;5051971;28;20029;-77
2024/03/20 06:45:05;;;;;;;14.15;7.28;;;;;;;;;;5053844;28;20017;-77
2024/03/20 06:47:31;;;;;;;21.33;7.63;;;;;;;;;;5052147;28;20112;-79
2024/03/20 06:49:57;;;;;;;16.63;7.72;;;;;;;;;;5051941;28;20032;-78
2024/03/20 06:52:23;;;;;;;15.38;7.57;;;;;;;;;;5051560;28;20029;-78
2024/03/20 06:54:50;;;;;;;23.48;8.30;;;;;;;;;;5051632;28;20102;-78
2024/03/20 06:57:17;;;;;;;20.48;8.05;;;;;;;;;;5053528;28;20516;-78
2024/03/20 06:59:43;;;;;;;18.70;8.73;;;;;;;;;;5051633;28;20069;-77
2024/03/20 07:02:09;;;;;;;18.33;7.47;;;;;;;;;;5051790;28;20025;-77
2024/03/20 07:04:36;;;;;;;15.90;8.70;;;;;;;;;;5053255;28;20032;-77
2024/03/20 07:07:03;;;;;;;16.70;8.02;;;;;;;;;;5052941;28;20017;-77
2024/03/20 07:09:29;;;;;;;17.75;8.27;;;;;;;;;;5053047;28;20021;-77
2024/03/20 07:11:55;;;;;;;19.95;7.90;;;;;;;;;;5051594;28;20457;-77
2024/03/20 07:14:21;;;;;;;17.10;8.13;;;;;;;;;;5051601;28;20044;-76
2024/03/20 07:16:47;;;;;;;19.85;8.23;;;;;;;;;;5052433;28;20049;-76
2024/03/20 07:19:14;;;;;;;19.13;8.30;;;;;;;;;;5053218;28;20078;-76
2024/03/20 07:21:40;;;;;;;14.00;8.30;;;;;;;;;;5052469;28;20021;-77
2024/03/20 07:24:09;;;;;;;16.02;9.13;;;;;;;;;;5053472;28;20025;-77
2024/03/20 07:26:39;;;;;;;17.35;8.55;;;;;;;;;;5052129;28;20017;-76
2024/03/20 07:29:09;;;;;;;20.10;8.18;;;;;;;;;;5052730;28;20051;-77
2024/03/20 07:31:35;;;;;;;16.92;9.02;;;;;;;;;;5052756;28;20021;-78
2024/03/20 07:34:03;;;;;;;13.27;8.02;;;;;;;;;;5052585;28;20128;-77
2024/03/20 07:36:29;;;;;;;21.27;8.93;;;;;;;;;;5051337;28;20029;-77
2024/03/20 07:38:58;;;;;;;17.73;8.75;;;;;;;;;;5051084;28;20033;-77
2024/03/20 07:41:24;;;;;;;16.70;8.50;;;;;;;;;;5051192;28;20048;-77
2024/03/20 07:43:50;;;;;;;18.17;9.65;;;;;;;;;;5051136;28;20029;-78
2024/03/20 07:46:16;;;;;;;18.50;8.43;;;;;;;;;;5051251;28;20024;-77
2024/03/20 07:48:45;;;;;;;16.60;7.78;;;;;;;;;;5051025;28;20020;-77
2024/03/20 07:51:11;;;;;;;18.02;8.30;;;;;;;;;;5052539;28;20104;-77
2024/03/20 07:53:37;;;;;;;15.57;8.20;;;;;;;;;;5052077;28;20062;-78
2024/03/20 07:56:05;;;;;;;15.43;9.30;;;;;;;;;;5050899;28;20037;-78
2024/03/20 07:58:31;;;;;;;25.88;9.23;;;;;;;;;;5051055;28;20028;-77
2024/03/20 08:00:58;;;;;;;20.95;9.45;;;;;;;;;;5050752;28;20025;-78
2024/03/20 08:03:24;;;;;;;18.77;8.80;;;;;;;;;;5052112;28;20021;-78
2024/03/20 08:05:50;;;;;;;20.30;10.60;;;;;;;;;;5051699;28;20453;-77
2024/03/20 08:08:17;;;;;;;20.48;9.63;;;;;;;;;;5050835;28;20021;-78
2024/03/20 08:10:43;;;;;;;23.38;11.32;;;;;;;;;;5050887;28;20029;-78
2024/03/20 08:13:10;;;;;;;23.92;11.18;;;;;;;;;;5052322;28;20102;-78
2024/03/20 08:15:39;;;;;;;14.52;9.40;;;;;;;;;;5050412;28;20484;-78
2024/03/20 08:18:05;;;;;;;22.63;11.07;;;;;;;;;;5051817;28;20025;-79
2024/03/20 08:20:33;;;;;;;17.77;9.52;;;;;;;;;;5051797;28;20075;-78
2024/03/20 08:22:59;;;;;;;22.17;10.48;;;;;;;;;;5050291;28;20017;-78
2024/03/20 08:25:25;;;;;;;18.70;10.45;;;;;;;;;;5050495;28;20388;-78
2024/03/20 08:27:51;;;;;;;23.10;11.90;;;;;;;;;;5050450;28;20366;-78
2024/03/20 08:30:17;;;;;;;24.17;12.35;;;;;;;;;;5050723;28;20021;-78
2024/03/20 08:32:43;;;;;;;20.30;11.68;;;;;;;;;;5050544;28;20385;-79
2024/03/20 08:35:12;;;;;;;18.85;11.77;;;;;;;;;;5050297;28;20029;-78
2024/03/20 08:37:39;;;;;;;20.58;12.27;;;;;;;;;;5050508;28;20094;-80
2024/03/20 08:40:06;;;;;;;26.35;13.77;;;;;;;;;;5050088;28;20082;-79
2024/03/20 08:42:32;;;;;;;27.20;16.35;;;;;;;;;;5051644;28;20029;-79
2024/03/20 08:45:00;;;;;;;27.33;15.75;;;;;;;;;;5049899;28;20376;-79
2024/03/20 08:47:26;;;;;;;24.30;15.35;;;;;;;;;;5050347;28;20039;-77
2024/03/20 08:49:52;;;;;;;23.75;14.18;;;;;;;;;;5050953;28;20368;-87
2024/03/20 08:52:18;;;;;;;30.85;15.80;;;;;;;;;;5051154;28;20499;-86
2024/03/20 08:54:45;;;;;;;22.52;15.07;;;;;;;;;;5050984;28;20049;-85
2024/03/20 08:57:12;;;;;;;24.15;15.10;;;;;;;;;;5051455;28;20473;-88
2024/03/20 08:59:38;;;;;;;24.98;17.27;;;;;;;;;;5051138;28;20116;-85
2024/03/20 09:02:04;;;;;;;29.27;17.27;;;;;;;;;;5052024;28;20092;-84
2024/03/20 09:04:30;;;;;;;26.33;17.23;;;;;;;;;;5052158;28;20109;-83
2024/03/20 09:06:57;;;;;;;26.15;15.25;;;;;;;;;;5050611;28;20033;-84
2024/03/20 09:09:23;;;;;;;26.38;14.93;;;;;;;;;;5051296;28;20120;-85
2024/03/20 09:11:49;;;;;;;23.25;13.57;;;;;;;;;;5052788;28;20088;-86
2024/03/20 09:14:15;;;;;;;27.60;17.38;;;;;;;;;;5065842;28;20048;-87
2024/03/20 09:16:42;;;;;;;25.15;17.73;;;;;;;;;;5066518;28;20056;-86
2024/03/20 09:19:08;;;;;;;28.00;16.55;;;;;;;;;;5074760;28;20028;-86
2024/03/20 09:21:38;;;;;;;31.42;17.20;;;;;;;;;;5055604;28;20039;-85
2024/03/20 09:24:05;;;;;;;28.87;17.77;;;;;;;;;;5054233;28;20048;-86
2024/03/20 09:26:33;;;;;;;27.38;18.80;;;;;;;;;;5055671;28;20308;-85
2024/03/20 09:28:59;;;;;;;29.27;17.58;;;;;;;;;;5054370;28;20083;-86
2024/03/20 09:31:25;;;;;;;27.60;19.13;;;;;;;;;;5054922;28;20028;-85
2024/03/20 09:33:51;;;;;;;28.13;19.17;;;;;;;;;;5054085;28;20075;-87
2024/03/20 09:36:18;;;;;;;26.40;15.82;;;;;;;;;;5055201;28;20132;-85
2024/03/20 09:38:44;;;;;;;28.00;19.65;;;;;;;;;;5054683;28;20381;-85
2024/03/20 09:41:15;;;;;;;26.00;16.48;;;;;;;;;;5054009;28;20013;-86
2024/03/20 09:43:43;;;;;;;27.08;15.50;;;;;;;;;;5053750;28;20036;-87
2024/03/20 09:46:12;;;;;;;27.92;18.33;;;;;;;;;;5053468;28;20056;-86
2024/03/20 09:48:39;;;;;;;21.30;14.65;;;;;;;;;;5053628;28;20419;-86
2024/03/20 09:51:06;;;;;;;30.02;18.27;;;;;;;;;;5054731;28;20047;-88
2024/03/20 09:53:34;;;;;;;20.05;13.50;;;;;;;;;;5053302;28;20056;-87
2024/03/20 09:56:09;;;;;;;23.52;14.80;;;;;;;;;;5053339;28;20039;-86
2024/03/20 09:58:37;;;;;;;28.67;18.50;;;;;;;;;;5042008;28;20029;-86
2024/03/20 10:01:05;;;;;;;29.25;18.33;;;;;;;;;;5042187;28;20095;-87
2024/03/20 10:03:31;;;;;;;25.95;18.98;;;;;;;;;;5033974;28;20175;-86
2024/03/20 10:05:57;;;;;;;24.67;17.70;;;;;;;;;;5035229;28;20075;-87
2024/03/20 10:08:23;;;;;;;27.48;18.48;;;;;;;;;;5033951;28;20029;-87
2024/03/20 10:10:54;;;;;;;24.77;15.77;;;;;;;;;;5033749;28;20076;-87
2024/03/20 10:13:20;;;;;;;20.92;11.98;;;;;;;;;;5033449;28;20491;-86
2024/03/20 10:15:47;;;;;;;28.23;19.65;;;;;;;;;;5034292;28;20098;-87
2024/03/20 10:18:16;;;;;;;28.02;17.90;;;;;;;;;;5035808;28;20384;-88
2024/03/20 10:20:42;;;;;;;25.67;17.50;;;;;;;;;;5042754;28;20029;-86
2024/03/20 10:23:16;;;;;;;26.45;17.52;;;;;;;;;;5033988;28;20492;-84
2024/03/20 10:25:42;;;;;;;21.70;14.95;;;;;;;;;;5034359;28;20500;-87
2024/03/20 10:28:13;;;;;;;28.63;18.90;;;;;;;;;;5045713;28;20048;-88
2024/03/20 10:30:39;;;;;;;27.50;19.38;;;;;;;;;;5034482;28;20037;-86
2024/03/20 10:33:07;;;;;;;27.65;18.48;;;;;;;;;;5033614;28;20504;-84
2024/03/20 10:35:35;;;;;;;26.83;17.50;;;;;;;;;;5034155;28;20024;-87
2024/03/20 10:38:01;;;;;;;31.15;19.23;;;;;;;;;;5044366;28;20076;-87
2024/03/20 10:40:29;;;;;;;33.10;19.63;;;;;;;;;;5033916;28;20457;-87
2024/03/20 10:42:55;;;;;;;27.60;15.85;;;;;;;;;;5033996;28;20034;-88
2024/03/20 10:45:22;;;;;;;17.80;12.00;;;;;;;;;;5033596;28;20051;-88
2024/03/20 10:47:48;;;;;;;18.55;13.23;;;;;;;;;;5034086;28;20021;-86
2024/03/20 10:50:21;;;;;;;18.85;12.63;;;;;;;;;;5033705;28;20056;-88
2024/03/20 10:52:48;;;;;;;21.58;14.40;;;;;;;;;;5034307;28;20496;-89
2024/03/20 10:55:18;;;;;;;16.77;10.25;;;;;;;;;;5033704;28;20044;-88
2024/03/20 10:57:46;;;;;;;17.80;13.90;;;;;;;;;;5033626;28;20033;-88
2024/03/20 11:00:24;;;;;;;13.82;9.18;;;;;;;;;;5033567;28;20025;-85
2024/03/20 11:02:50;;;;;;;23.83;13.40;;;;;;;;;;5048756;28;20060;-86
2024/03/20 11:05:35;;;;;;;11.15;6.15;;;;;;;;;;5039572;28;20041;-88
2024/03/20 11:08:02;;;;;;;15.63;9.75;;;;;;;;;;5050297;28;20037;-88
2024/03/20 11:10:29;;;;;;;13.63;8.18;;;;;;;;;;5051568;28;20085;-86
2024/03/20 11:12:57;;;;;;;18.15;9.88;;;;;;;;;;5053371;28;20116;-90
2024/03/20 11:15:25;;;;;;;15.43;8.70;;;;;;;;;;5042334;28;20548;-88
2024/03/20 11:17:52;;;;;;;14.65;9.27;;;;;;;;;;5038168;28;20029;-87
2024/03/20 11:20:34;;;;;;;13.57;7.28;;;;;;;;;;5034799;28;20032;-89
2024/03/20 11:23:04;;;;;;;10.45;5.55;;;;;;;;;;5032915;28;20083;-89
2024/03/20 11:25:39;;;;;;;13.90;8.68;;;;;;;;;;5032757;28;20496;-89
2024/03/20 11:28:06;;;;;;;10.95;5.13;;;;;;;;;;5032634;28;20040;-89
2024/03/20 11:30:32;;;;;;;13.77;10.35;;;;;;;;;;5032945;28;20041;-89
2024/03/20 11:32:58;;;;;;;13.63;8.00;;;;;;;;;;5033026;28;20021;-88
2024/03/20 11:35:26;;;;;;;16.23;9.13;;;;;;;;;;5033315;28;20477;-87
2024/03/20 11:37:52;;;;;;;16.90;10.82;;;;;;;;;;5034220;28;20326;-88
2024/03/20 11:40:18;;;;;;;18.15;10.25;;;;;;;;;;5032284;28;20029;-87
2024/03/20 11:42:49;;;;;;;11.15;7.45;;;;;;;;;;5033209;28;20037;-89
2024/03/20 11:45:16;;;;;;;15.07;10.80;;;;;;;;;;5034184;28;20160;-86
2024/03/20 11:47:42;;;;;;;20.08;11.45;;;;;;;;;;5033863;28;20041;-85
2024/03/20 11:50:13;;;;;;;16.48;9.70;;;;;;;;;;5034346;28;20033;-86
2024/03/20 11:52:39;;;;;;;11.88;6.68;;;;;;;;;;5032417;28;20030;-88
2024/03/20 11:55:09;;;;;;;14.20;7.47;;;;;;;;;;5032102;28;20488;-89
2024/03/20 11:57:34;;;;;;;;;;;;;;;;;;5032801;28;20029;-88
2024/03/20 12:00:01;;;;;;;11.27;6.75;;;;;;;;;;5032393;28;19912;-89
2024/03/20 12:02:34;;;;;;;15.20;7.53;;;;;;;;;;5033069;28;20030;-87
2024/03/20 12:05:01;;;;;;;12.35;7.15;;;;;;;;;;5031845;28;20067;-89
2024/03/20 12:07:27;;;;;;;11.35;6.60;;;;;;;;;;5032068;28;20017;-89
2024/03/20 12:09:53;;;;;;;12.77;7.13;;;;;;;;;;5033033;28;20424;-87
2024/03/20 12:12:21;;;;;;;12.88;6.88;;;;;;;;;;5032034;28;20334;-89
2024/03/20 12:14:47;;;;;;;9.10;3.72;;;;;;;;;;5031719;28;20033;-90
2024/03/20 12:17:17;;;;;;;16.27;9.13;;;;;;;;;;5031510;28;20084;-89
2024/03/20 12:19:43;;;;;;;16.23;8.98;;;;;;;;;;5031100;28;20030;-89
2024/03/20 12:22:12;;;;;;;13.27;10.07;;;;;;;;;;5031237;28;20052;-88
2024/03/20 12:24:38;;;;;;;17.13;8.82;;;;;;;;;;5031686;28;20025;-88
2024/03/20 12:27:05;;;;;;;12.60;7.95;;;;;;;;;;5032168;28;20080;-90
2024/03/20 12:29:31;;;;;;;17.02;10.35;;;;;;;;;;5031694;28;20021;-89
2024/03/20 12:31:57;;;;;;;12.35;7.13;;;;;;;;;;5032175;28;20021;-89
2024/03/20 12:34:24;;;;;;;9.90;5.40;;;;;;;;;;5031079;28;20072;-90
2024/03/20 12:36:50;;;;;;;14.30;10.93;;;;;;;;;;5031404;28;20022;-89
2024/03/20 12:39:16;;;;;;;15.27;9.25;;;;;;;;;;5031458;28;20041;-90
2024/03/20 12:41:42;;;;;;;16.63;7.93;;;;;;;;;;5031351;28;20477;-89
2024/03/20 12:44:08;;;;;;;15.45;9.35;;;;;;;;;;5031779;28;20470;-89
2024/03/20 12:46:34;;;;;;;13.25;7.97;;;;;;;;;;5031305;28;20029;-89
2024/03/20 12:49:00;;;;;;;9.15;6.70;;;;;;;;;;5031690;28;20017;-89
2024/03/20 12:51:27;;;;;;;16.02;8.18;;;;;;;;;;5034339;28;20026;-90
2024/03/20 12:53:55;;;;;;;15.15;9.25;;;;;;;;;;5035919;28;20036;-89
2024/03/20 12:56:21;;;;;;;12.52;8.18;;;;;;;;;;5036636;28;20036;-87
2024/03/20 12:58:47;;;;;;;17.48;7.80;;;;;;;;;;5051143;28;20017;-89
2024/03/20 13:01:14;;;;;;;11.27;6.65;;;;;;;;;;5052815;28;20036;-89
2024/03/20 13:03:40;;;;;;;6.13;4.45;;;;;;;;;;5056519;28;20010;-89
2024/03/20 13:06:10;;;;;;;14.82;8.50;;;;;;;;;;5055224;28;20048;-89
2024/03/20 13:08:36;;;;;;;16.75;8.95;;;;;;;;;;5043443;28;20030;-89
2024/03/20 13:11:04;;;;;;;13.75;7.57;;;;;;;;;;5035227;28;20025;-89
2024/03/20 13:13:33;;;;;;;15.73;9.88;;;;;;;;;;5036279;28;20021;-90
2024/03/20 13:16:04;;;;;;;14.13;8.15;;;;;;;;;;5035405;28;20050;-89
2024/03/20 13:18:36;;;;;;;11.25;7.18;;;;;;;;;;5035694;28;20033;-87
2024/03/20 13:21:12;;;;;;;9.95;4.45;;;;;;;;;;5035508;28;20032;-88
2024/03/20 13:23:42;;;;;;;10.10;5.93;;;;;;;;;;5036362;28;20070;-88
2024/03/20 13:26:17;;;;;;;11.55;7.45;;;;;;;;;;5035892;28;20076;-90
2024/03/20 13:28:48;;;;;;;13.45;6.65;;;;;;;;;;5035419;28;20029;-90
2024/03/20 13:31:15;;;;;;;13.45;8.65;;;;;;;;;;5034497;28;20140;-89
2024/03/20 13:33:41;;;;;;;12.05;8.07;;;;;;;;;;5034824;28;20552;-90
2024/03/20 13:36:14;;;;;;;9.98;6.38;;;;;;;;;;5034262;28;20428;-89
2024/03/20 13:38:43;;;;;;;10.27;4.97;;;;;;;;;;5034482;28;20496;-88
2024/03/20 13:41:34;;;;;;;12.70;7.93;;;;;;;;;;5034531;28;20025;-89
2024/03/20 13:44:05;;;;;;;12.20;8.73;;;;;;;;;;5035221;28;20312;-89
2024/03/20 13:46:31;;;;;;;8.30;4.40;;;;;;;;;;5034159;28;20022;-88
2024/03/20 13:48:58;;;;;;;12.27;6.93;;;;;;;;;;5036373;28;20025;-89
2024/03/20 13:51:25;;;;;;;12.77;6.63;;;;;;;;;;5035212;28;20021;-89
2024/03/20 13:53:52;;;;;;;12.32;8.10;;;;;;;;;;5035992;28;20295;-88
2024/03/20 13:56:19;;;;;;;13.20;8.88;;;;;;;;;;5037407;28;20017;-87
2024/03/20 13:58:46;;;;;;;14.00;7.15;;;;;;;;;;5034655;28;20026;-88
2024/03/20 14:01:16;;;;;;;16.42;10.50;;;;;;;;;;5033276;28;20029;-87
2024/03/20 14:03:47;;;;;;;7.13;4.35;;;;;;;;;;5033110;28;20036;-90
2024/03/20 14:06:17;;;;;;;15.20;8.55;;;;;;;;;;5034153;28;20529;-88
2024/03/20 14:08:47;;;;;;;12.27;9.20;;;;;;;;;;5034064;28;20026;-89
2024/03/20 14:11:14;;;;;;;14.52;9.80;;;;;;;;;;5033375;28;20074;-88
2024/03/20 14:13:41;;;;;;;13.70;8.63;;;;;;;;;;5033737;28;20029;-88
2024/03/20 14:16:13;;;;;;;14.30;10.05;;;;;;;;;;5033962;28;20041;-90
2024/03/20 14:18:39;;;;;;;13.30;10.25;;;;;;;;;;5034175;28;20025;-90
2024/03/20 14:21:11;;;;;;;16.10;10.77;;;;;;;;;;5033437;28;20038;-89
2024/03/20 14:23:37;;;;;;;12.82;8.75;;;;;;;;;;5033774;28;20385;-90
2024/03/20 14:26:03;;;;;;;14.15;8.73;;;;;;;;;;5033691;28;20021;-90